Time;durP1;ratioP1;P1;durP2;ratioP2;P2;SDS_P1;SDS_P2;PMS_P1;PMS_P2;Temp;Humidity;BMP_temperature;BMP_pressure;BME280_temperature;BME280_humidity;BME280_pressure;Samples;Min_cycle;Max_cycle;Signal;HPM_P1;HPM_P2
2022/01/09 00:00:34;;;;;;;85.90;40.47;;;;;;;;;;5036436;28;20215;-66
2022/01/09 00:03:08;;;;;;;60.43;28.77;;;;;;;;;;5037662;28;20257;-66
2022/01/09 00:05:36;;;;;;;221.90;77.13;;;;;;;;;;5054201;28;20237;-66
2022/01/09 00:08:04;;;;;;;156.83;52.53;;;;;;;;;;5036146;28;20220;-66
2022/01/09 00:10:32;;;;;;;87.47;39.20;;;;;;;;;;5054129;28;20299;-66
2022/01/09 00:13:00;;;;;;;68.30;31.43;;;;;;;;;;5054121;28;20215;-66
2022/01/09 00:15:27;;;;;;;61.87;30.30;;;;;;;;;;5054000;28;20235;-66
2022/01/09 00:17:55;;;;;;;57.87;29.17;;;;;;;;;;5053839;28;20212;-66
2022/01/09 00:20:22;;;;;;;61.23;29.93;;;;;;;;;;5053917;28;20212;-66
2022/01/09 00:22:51;;;;;;;60.80;30.03;;;;;;;;;;5053978;28;20207;-66
2022/01/09 00:25:21;;;;;;;60.90;30.70;;;;;;;;;;5053576;28;20742;-66
2022/01/09 00:27:50;;;;;;;129.13;50.43;;;;;;;;;;5036546;28;20200;-66
2022/01/09 00:30:21;;;;;;;83.77;36.37;;;;;;;;;;5036313;28;20208;-66
2022/01/09 00:32:49;;;;;;;70.40;32.10;;;;;;;;;;5053905;28;20238;-66
2022/01/09 00:35:17;;;;;;;59.87;28.27;;;;;;;;;;5053474;28;20728;-66
2022/01/09 00:37:44;;;;;;;60.87;29.93;;;;;;;;;;5053558;28;20721;-66
2022/01/09 00:40:13;;;;;;;64.53;30.93;;;;;;;;;;5039614;28;20216;-66
2022/01/09 00:42:41;;;;;;;58.60;31.87;;;;;;;;;;5057646;28;20235;-66
2022/01/09 00:45:12;;;;;;;60.07;31.90;;;;;;;;;;5057966;28;20200;-66
2022/01/09 00:47:39;;;;;;;62.30;34.37;;;;;;;;;;5057609;28;20544;-66
2022/01/09 00:50:08;;;;;;;87.90;40.57;;;;;;;;;;5057344;28;20215;-66
2022/01/09 00:52:36;;;;;;;117.17;48.37;;;;;;;;;;5057204;28;20295;-70
2022/01/09 00:55:05;;;;;;;90.70;38.23;;;;;;;;;;5039730;28;20231;-66
2022/01/09 00:57:33;;;;;;;69.17;32.87;;;;;;;;;;5057296;28;20556;-69
2022/01/09 01:00:00;;;;;;;64.90;31.77;;;;;;;;;;5057204;28;20733;-66
2022/01/09 01:02:27;;;;;;;62.80;35.90;;;;;;;;;;5057376;28;20211;-66
2022/01/09 01:04:54;;;;;;;62.90;31.47;;;;;;;;;;5057041;28;20215;-66
2022/01/09 01:07:23;;;;;;;99.00;46.37;;;;;;;;;;5039405;28;20254;-66
2022/01/09 01:09:50;;;;;;;137.33;49.77;;;;;;;;;;5056925;28;20219;-66
2022/01/09 01:12:17;;;;;;;91.97;41.13;;;;;;;;;;5057193;28;20291;-66
2022/01/09 01:14:45;;;;;;;68.90;32.40;;;;;;;;;;5057150;28;20242;-66
2022/01/09 01:17:13;;;;;;;60.00;30.07;;;;;;;;;;5057195;28;20212;-68
2022/01/09 01:19:41;;;;;;;61.47;29.67;;;;;;;;;;5056841;28;20219;-65
2022/01/09 01:22:27;;;;;;;68.50;31.83;;;;;;;;;;5056513;28;20201;-68
2022/01/09 01:24:56;;;;;;;60.90;29.97;;;;;;;;;;5056938;28;20686;-66
2022/01/09 01:27:24;;;;;;;103.67;45.07;;;;;;;;;;5056550;28;20246;-66
2022/01/09 01:29:51;;;;;;;123.83;45.57;;;;;;;;;;5056828;28;20208;-66
2022/01/09 01:32:18;;;;;;;166.97;56.93;;;;;;;;;;5056533;28;20220;-65
2022/01/09 01:34:46;;;;;;;88.00;37.70;;;;;;;;;;5038950;28;20235;-66
2022/01/09 01:37:13;;;;;;;89.77;36.07;;;;;;;;;;5039019;28;20636;-66
2022/01/09 01:39:40;;;;;;;64.23;31.47;;;;;;;;;;5056438;28;20698;-66
2022/01/09 01:42:08;;;;;;;65.10;29.90;;;;;;;;;;5056469;28;20216;-66
2022/01/09 01:44:40;;;;;;;64.80;30.53;;;;;;;;;;5056336;28;20659;-66
2022/01/09 01:47:09;;;;;;;61.17;29.43;;;;;;;;;;5056301;28;20552;-66
2022/01/09 01:49:36;;;;;;;66.00;29.33;;;;;;;;;;5056032;28;20214;-66
2022/01/09 01:52:04;;;;;;;63.60;30.83;;;;;;;;;;5055680;28;20235;-66
2022/01/09 01:54:32;;;;;;;58.87;29.20;;;;;;;;;;5038410;28;20281;-66
2022/01/09 01:57:00;;;;;;;61.40;28.93;;;;;;;;;;5056013;28;20700;-66
2022/01/09 01:59:27;;;;;;;69.87;31.90;;;;;;;;;;5038627;28;20208;-66
2022/01/09 02:01:55;;;;;;;78.80;34.13;;;;;;;;;;5056299;28;20238;-67
2022/01/09 02:04:22;;;;;;;63.03;31.27;;;;;;;;;;5056248;28;20211;-67
2022/01/09 02:06:50;;;;;;;89.13;36.77;;;;;;;;;;5056088;28;20243;-66
2022/01/09 02:09:18;;;;;;;62.30;30.17;;;;;;;;;;5038323;28;20658;-66
2022/01/09 02:11:46;;;;;;;75.30;33.23;;;;;;;;;;5055883;28;20219;-66
2022/01/09 02:14:13;;;;;;;65.90;32.70;;;;;;;;;;5055931;28;20218;-66
2022/01/09 02:16:44;;;;;;;79.97;38.17;;;;;;;;;;5055661;28;20301;-69
2022/01/09 02:19:14;;;;;;;63.07;33.13;;;;;;;;;;5055631;28;20675;-66
2022/01/09 02:21:44;;;;;;;70.73;36.53;;;;;;;;;;5055721;28;20266;-65
2022/01/09 02:24:15;;;;;;;98.50;40.37;;;;;;;;;;5055876;28;20199;-66
2022/01/09 02:26:42;;;;;;;76.70;34.90;;;;;;;;;;5055618;28;20220;-67
2022/01/09 02:29:10;;;;;;;58.37;28.17;;;;;;;;;;5055765;28;20212;-65
2022/01/09 02:31:38;;;;;;;53.33;28.30;;;;;;;;;;5038286;28;20213;-66
2022/01/09 02:34:05;;;;;;;56.60;28.27;;;;;;;;;;5055691;28;20212;-65
2022/01/09 02:36:32;;;;;;;66.73;34.43;;;;;;;;;;5055470;28;20239;-65
2022/01/09 02:39:00;;;;;;;54.27;29.20;;;;;;;;;;5055430;28;20240;-65
2022/01/09 02:41:27;;;;;;;58.40;30.63;;;;;;;;;;5055263;28;20216;-65
2022/01/09 02:43:55;;;;;;;129.13;45.73;;;;;;;;;;5055445;28;20208;-66
2022/01/09 02:46:42;;;;;;;89.00;36.50;;;;;;;;;;5055329;28;20211;-66
2022/01/09 02:49:10;;;;;;;60.57;29.20;;;;;;;;;;5055420;28;20203;-69
2022/01/09 02:51:40;;;;;;;52.50;27.07;;;;;;;;;;5054999;28;20211;-69
2022/01/09 02:55:04;;;;;;;52.33;27.80;;;;;;;;;;5055072;28;21009;-65
2022/01/09 02:56:55;;;;;;;53.83;29.90;;;;;;;;;;5054487;28;20214;-69
2022/01/09 02:59:22;;;;;;;53.33;27.10;;;;;;;;;;5055346;28;20218;-69
2022/01/09 03:01:50;;;;;;;53.80;27.07;;;;;;;;;;5054874;28;20212;-69
2022/01/09 03:04:17;;;;;;;145.13;47.50;;;;;;;;;;5055005;28;20266;-65
2022/01/09 03:06:44;;;;;;;88.17;35.53;;;;;;;;;;5054882;28;20598;-65
2022/01/09 03:09:12;;;;;;;68.27;32.17;;;;;;;;;;5054880;28;20208;-66
2022/01/09 03:11:40;;;;;;;64.10;30.57;;;;;;;;;;5054976;28;20215;-67
2022/01/09 03:14:07;;;;;;;64.87;34.90;;;;;;;;;;5054826;28;20213;-66
2022/01/09 03:16:35;;;;;;;55.63;28.60;;;;;;;;;;5054644;28;20757;-66
2022/01/09 03:19:03;;;;;;;131.10;46.73;;;;;;;;;;5054573;28;20219;-67
2022/01/09 03:21:30;;;;;;;116.20;42.63;;;;;;;;;;5054430;28;20667;-67
2022/01/09 03:23:57;;;;;;;66.13;32.37;;;;;;;;;;5054505;28;20219;-65
2022/01/09 03:26:25;;;;;;;64.40;29.67;;;;;;;;;;5036948;28;20211;-66
2022/01/09 03:28:52;;;;;;;50.13;26.57;;;;;;;;;;5054546;28;20215;-66
2022/01/09 03:31:19;;;;;;;52.93;26.73;;;;;;;;;;5037163;28;20215;-65
2022/01/09 03:33:46;;;;;;;63.10;32.93;;;;;;;;;;5054453;28;20294;-66
2022/01/09 03:36:14;;;;;;;58.43;28.10;;;;;;;;;;5054112;28;20270;-66
2022/01/09 03:38:41;;;;;;;56.17;31.53;;;;;;;;;;5054322;28;20240;-66
2022/01/09 03:41:08;;;;;;;129.50;46.70;;;;;;;;;;5054234;28;20637;-67
2022/01/09 03:43:35;;;;;;;81.80;36.30;;;;;;;;;;5054424;28;20203;-67
2022/01/09 03:46:04;;;;;;;66.37;31.57;;;;;;;;;;5054343;28;20239;-66
2022/01/09 03:48:32;;;;;;;55.07;28.60;;;;;;;;;;5036904;28;20283;-66
2022/01/09 03:50:59;;;;;;;70.67;35.07;;;;;;;;;;5054339;28;20211;-66
2022/01/09 03:53:26;;;;;;;61.30;33.60;;;;;;;;;;5036358;28;20215;-66
2022/01/09 03:55:55;;;;;;;55.77;29.37;;;;;;;;;;5036783;28;20240;-66
2022/01/09 03:58:22;;;;;;;57.73;29.33;;;;;;;;;;5054101;28;20291;-66
2022/01/09 04:00:53;;;;;;;85.33;36.10;;;;;;;;;;5054202;28;20227;-66
2022/01/09 04:03:21;;;;;;;85.70;35.00;;;;;;;;;;5054052;28;20562;-66
2022/01/09 04:05:48;;;;;;;52.60;28.17;;;;;;;;;;5054109;28;20204;-66
2022/01/09 04:08:17;;;;;;;53.87;26.43;;;;;;;;;;5054104;28;20261;-65
2022/01/09 04:10:45;;;;;;;56.33;29.60;;;;;;;;;;5053782;28;20569;-66
2022/01/09 04:13:13;;;;;;;50.03;26.73;;;;;;;;;;5054126;28;20247;-66
2022/01/09 04:15:47;;;;;;;48.63;27.00;;;;;;;;;;5058208;28;20322;-67
2022/01/09 04:18:21;;;;;;;61.27;29.80;;;;;;;;;;5058178;28;20249;-67
2022/01/09 04:20:49;;;;;;;98.90;38.40;;;;;;;;;;5058013;28;20246;-66
2022/01/09 04:23:17;;;;;;;75.07;32.23;;;;;;;;;;5058063;28;20212;-67
2022/01/09 04:25:45;;;;;;;85.83;37.97;;;;;;;;;;5058040;28;20221;-66
2022/01/09 04:28:14;;;;;;;63.63;30.43;;;;;;;;;;5057946;28;20261;-66
2022/01/09 04:30:42;;;;;;;62.03;29.33;;;;;;;;;;5040010;28;20220;-66
2022/01/09 04:33:10;;;;;;;55.50;28.67;;;;;;;;;;5057601;28;20243;-66
2022/01/09 04:35:39;;;;;;;52.50;28.30;;;;;;;;;;5057614;28;20626;-66
2022/01/09 04:38:07;;;;;;;52.90;27.73;;;;;;;;;;5057562;28;20244;-66
2022/01/09 04:40:35;;;;;;;76.47;33.40;;;;;;;;;;5057466;28;20675;-66
2022/01/09 04:43:05;;;;;;;73.03;30.80;;;;;;;;;;5040010;28;20243;-65
2022/01/09 04:45:33;;;;;;;51.17;27.37;;;;;;;;;;5057422;28;20291;-66
2022/01/09 04:48:04;;;;;;;58.67;28.10;;;;;;;;;;5057771;28;20204;-69
2022/01/09 04:50:34;;;;;;;50.17;27.10;;;;;;;;;;5057732;28;20204;-70
2022/01/09 04:53:07;;;;;;;60.23;29.50;;;;;;;;;;5057362;28;20275;-66
2022/01/09 04:55:41;;;;;;;54.83;27.00;;;;;;;;;;5057314;28;20224;-69
2022/01/09 04:58:09;;;;;;;54.40;27.93;;;;;;;;;;5057482;28;20203;-69
2022/01/09 05:00:39;;;;;;;66.07;29.97;;;;;;;;;;5057125;28;20568;-69
2022/01/09 05:03:08;;;;;;;62.00;29.03;;;;;;;;;;5057159;28;20196;-68
2022/01/09 05:05:36;;;;;;;51.97;27.30;;;;;;;;;;5057353;28;20212;-68
2022/01/09 05:08:04;;;;;;;50.93;26.07;;;;;;;;;;5057335;28;20291;-68
2022/01/09 05:10:31;;;;;;;60.53;32.70;;;;;;;;;;5057350;28;20214;-67
2022/01/09 05:12:59;;;;;;;53.47;26.30;;;;;;;;;;5057228;28;20208;-69
2022/01/09 05:15:26;;;;;;;47.93;25.77;;;;;;;;;;5056754;28;20250;-66
2022/01/09 05:17:58;;;;;;;46.73;25.47;;;;;;;;;;5057132;28;20570;-67
2022/01/09 05:20:26;;;;;;;53.63;27.33;;;;;;;;;;5056578;28;20687;-68
2022/01/09 05:22:54;;;;;;;57.77;29.03;;;;;;;;;;5056630;28;20302;-67
2022/01/09 05:25:21;;;;;;;66.47;29.20;;;;;;;;;;5056554;28;20269;-68
2022/01/09 05:27:49;;;;;;;53.00;26.77;;;;;;;;;;5056726;28;20674;-68
2022/01/09 05:30:17;;;;;;;48.17;25.90;;;;;;;;;;5056521;28;20795;-66
2022/01/09 05:32:44;;;;;;;49.30;24.33;;;;;;;;;;5056834;28;20219;-66
2022/01/09 05:35:14;;;;;;;58.77;31.30;;;;;;;;;;5056624;28;20230;-69
2022/01/09 05:37:41;;;;;;;47.93;27.50;;;;;;;;;;5056137;28;20243;-69
2022/01/09 05:40:09;;;;;;;55.37;27.87;;;;;;;;;;5056416;28;20766;-66
2022/01/09 05:42:37;;;;;;;55.93;29.83;;;;;;;;;;5056693;28;20216;-67
2022/01/09 05:45:07;;;;;;;113.60;46.27;;;;;;;;;;5056488;28;20243;-68
2022/01/09 05:47:34;;;;;;;104.90;41.33;;;;;;;;;;5056617;28;20212;-66
2022/01/09 05:50:03;;;;;;;83.00;36.30;;;;;;;;;;5056199;28;20266;-66
2022/01/09 05:52:30;;;;;;;76.97;34.50;;;;;;;;;;5056053;28;20204;-65
2022/01/09 05:54:57;;;;;;;67.80;32.23;;;;;;;;;;5056463;28;20266;-66
2022/01/09 05:57:25;;;;;;;85.67;39.33;;;;;;;;;;5056187;28;20247;-68
2022/01/09 05:59:52;;;;;;;57.97;33.43;;;;;;;;;;5055993;28;20620;-67
2022/01/09 06:02:19;;;;;;;48.80;27.33;;;;;;;;;;5056139;28;20212;-68
2022/01/09 06:04:47;;;;;;;66.47;34.37;;;;;;;;;;5055933;28;20212;-66
2022/01/09 06:07:14;;;;;;;69.27;31.53;;;;;;;;;;5054212;28;20212;-66
2022/01/09 06:09:41;;;;;;;65.50;32.53;;;;;;;;;;5055439;28;20261;-67
2022/01/09 06:12:09;;;;;;;59.30;28.33;;;;;;;;;;5054176;28;20667;-66
2022/01/09 06:14:36;;;;;;;60.53;30.80;;;;;;;;;;5055182;28;20243;-67
2022/01/09 06:17:03;;;;;;;61.37;30.47;;;;;;;;;;5053624;28;20869;-66
2022/01/09 06:19:31;;;;;;;73.40;39.17;;;;;;;;;;5054775;28;20609;-66
2022/01/09 06:21:58;;;;;;;67.40;34.53;;;;;;;;;;5054696;28;20219;-66
2022/01/09 06:24:25;;;;;;;111.03;46.73;;;;;;;;;;5054033;28;20216;-68
2022/01/09 06:26:53;;;;;;;216.60;74.90;;;;;;;;;;5020896;28;20204;-68
2022/01/09 06:29:20;;;;;;;143.93;53.07;;;;;;;;;;5048252;28;20715;-68
2022/01/09 06:31:50;;;;;;;80.67;37.53;;;;;;;;;;5053572;28;20228;-66
2022/01/09 06:34:18;;;;;;;128.93;51.73;;;;;;;;;;5051849;28;20734;-66
2022/01/09 06:36:46;;;;;;;200.73;82.23;;;;;;;;;;5018425;28;20250;-69
2022/01/09 06:39:13;;;;;;;95.10;48.27;;;;;;;;;;5036627;28;20747;-70
2022/01/09 06:41:41;;;;;;;111.27;51.43;;;;;;;;;;5036797;28;20235;-67
2022/01/09 06:44:08;;;;;;;222.57;76.60;;;;;;;;;;5035802;28;20243;-72
2022/01/09 06:46:35;;;;;;;485.13;143.93;;;;;;;;;;5054446;28;20232;-67
2022/01/09 06:49:03;;;;;;;402.97;125.43;;;;;;;;;;5053446;28;20262;-71
2022/01/09 06:51:30;;;;;;;314.87;103.63;;;;;;;;;;5052783;28;20238;-69
2022/01/09 06:53:57;;;;;;;393.63;131.20;;;;;;;;;;5035294;28;20224;-73
2022/01/09 06:56:25;;;;;;;505.43;185.37;;;;;;;;;;5053052;28;20251;-72
2022/01/09 06:58:52;;;;;;;828.43;361.27;;;;;;;;;;5051966;28;20645;-71
2022/01/09 07:01:19;;;;;;;677.13;283.30;;;;;;;;;;5052372;28;20323;-70
2022/01/09 07:03:47;;;;;;;674.73;288.63;;;;;;;;;;5052368;28;20254;-70
2022/01/09 07:10:29;;;;;;;711.43;312.57;;;;;;;;;;5339097;22;20305;-69
2022/01/09 07:12:56;;;;;;;289.87;122.87;;;;;;;;;;5046508;28;20236;-68
2022/01/09 07:15:24;;;;;;;81.33;45.20;;;;;;;;;;5047205;28;20228;-69
2022/01/09 07:17:51;;;;;;;73.17;37.20;;;;;;;;;;5041255;28;20243;-66
2022/01/09 07:20:18;;;;;;;81.17;39.63;;;;;;;;;;5041473;28;20706;-68
2022/01/09 07:22:47;;;;;;;167.20;81.27;;;;;;;;;;5058719;28;20259;-69
2022/01/09 07:25:14;;;;;;;70.97;39.07;;;;;;;;;;5043493;28;20339;-67
2022/01/09 07:27:42;;;;;;;75.80;36.33;;;;;;;;;;5073516;28;20239;-67
2022/01/09 07:30:09;;;;;;;74.47;36.97;;;;;;;;;;5072849;28;20235;-69
2022/01/09 07:32:37;;;;;;;61.70;31.50;;;;;;;;;;5073825;28;20740;-66
2022/01/09 07:35:05;;;;;;;83.53;41.43;;;;;;;;;;5073579;28;20712;-68
2022/01/09 07:37:32;;;;;;;74.43;37.57;;;;;;;;;;5072429;28;20262;-65
2022/01/09 07:40:00;;;;;;;81.37;39.83;;;;;;;;;;5073592;28;20315;-64
2022/01/09 07:42:28;;;;;;;88.60;43.67;;;;;;;;;;5073368;28;20242;-69
2022/01/09 07:44:55;;;;;;;79.10;43.03;;;;;;;;;;5072433;28;20597;-68
2022/01/09 07:47:22;;;;;;;79.43;42.70;;;;;;;;;;5073329;28;20285;-67
2022/01/09 07:49:50;;;;;;;75.40;40.17;;;;;;;;;;5057325;28;20228;-69
2022/01/09 07:52:18;;;;;;;88.93;42.50;;;;;;;;;;5036713;28;20324;-67
2022/01/09 07:54:46;;;;;;;81.57;41.40;;;;;;;;;;5041247;28;20256;-67
2022/01/09 07:57:13;;;;;;;82.33;42.30;;;;;;;;;;5042515;28;20248;-67
2022/01/09 07:59:40;;;;;;;99.30;48.43;;;;;;;;;;5042450;28;20626;-67
2022/01/09 08:02:09;;;;;;;98.07;47.27;;;;;;;;;;5041633;28;20224;-67
2022/01/09 08:04:36;;;;;;;95.57;49.20;;;;;;;;;;5037333;28;20313;-67
2022/01/09 08:07:03;;;;;;;92.97;45.37;;;;;;;;;;5039699;28;20583;-67
2022/01/09 08:09:31;;;;;;;606.60;205.57;;;;;;;;;;5042129;28;20224;-67
2022/01/09 08:11:58;;;;;;;93.93;45.03;;;;;;;;;;5041297;28;20240;-67
2022/01/09 08:14:25;;;;;;;75.13;36.47;;;;;;;;;;5037574;28;20256;-68
2022/01/09 08:16:53;;;;;;;71.77;37.67;;;;;;;;;;5031259;28;20306;-67
2022/01/09 08:19:20;;;;;;;127.93;51.40;;;;;;;;;;5032804;28;20228;-68
2022/01/09 08:21:47;;;;;;;342.77;109.83;;;;;;;;;;5044724;28;20258;-67
2022/01/09 08:24:15;;;;;;;382.07;119.43;;;;;;;;;;5015617;28;20237;-68
2022/01/09 08:26:42;;;;;;;422.53;146.07;;;;;;;;;;5035393;28;20244;-66
2022/01/09 08:29:09;;;;;;;158.20;62.80;;;;;;;;;;5033032;28;20717;-66
2022/01/09 08:31:36;;;;;;;107.00;48.27;;;;;;;;;;5042396;28;20227;-66
2022/01/09 08:34:04;;;;;;;355.33;106.10;;;;;;;;;;5042320;28;20239;-67
2022/01/09 08:36:33;;;;;;;176.90;65.73;;;;;;;;;;5036417;28;20240;-66
2022/01/09 08:39:00;;;;;;;222.03;72.73;;;;;;;;;;5040300;28;20323;-68
2022/01/09 08:41:28;;;;;;;76.47;37.90;;;;;;;;;;5039867;28;20729;-68
2022/01/09 08:43:55;;;;;;;67.40;35.53;;;;;;;;;;5041383;28;20233;-66
2022/01/09 08:46:22;;;;;;;96.77;40.43;;;;;;;;;;5040330;28;20290;-66
2022/01/09 08:48:52;;;;;;;205.97;66.63;;;;;;;;;;5040538;28;20224;-66
2022/01/09 08:51:19;;;;;;;155.30;57.07;;;;;;;;;;5039350;28;20235;-67
2022/01/09 08:53:50;;;;;;;825.57;279.23;;;;;;;;;;5042082;28;20239;-67
2022/01/09 08:56:23;;;;;;;533.87;163.13;;;;;;;;;;5043442;28;20242;-67
2022/01/09 08:58:51;;;;;;;368.63;118.33;;;;;;;;;;5036905;28;20236;-67
2022/01/09 09:01:38;;;;;;;160.33;62.40;;;;;;;;;;5031379;28;20225;-67
2022/01/09 09:04:06;;;;;;;211.90;77.97;;;;;;;;;;5035345;28;20229;-67
2022/01/09 09:06:33;;;;;;;247.67;76.07;;;;;;;;;;5036310;28;20691;-66
2022/01/09 09:09:00;;;;;;;157.23;56.00;;;;;;;;;;5035339;28;20551;-68
2022/01/09 09:11:27;;;;;;;117.13;46.57;;;;;;;;;;5035348;28;20793;-64
2022/01/09 09:13:54;;;;;;;105.60;43.53;;;;;;;;;;5036489;28;20287;-67
2022/01/09 09:16:22;;;;;;;83.13;38.83;;;;;;;;;;5036351;28;20229;-67
2022/01/09 09:18:49;;;;;;;61.43;31.90;;;;;;;;;;5036213;28;20237;-66
2022/01/09 09:21:17;;;;;;;70.03;35.47;;;;;;;;;;5035741;28;20239;-66
2022/01/09 09:23:44;;;;;;;108.13;43.77;;;;;;;;;;5036084;28;20244;-66
2022/01/09 09:26:12;;;;;;;96.53;39.07;;;;;;;;;;5041499;28;20287;-66
2022/01/09 09:28:39;;;;;;;73.63;35.37;;;;;;;;;;5036067;28;20236;-66
2022/01/09 09:31:06;;;;;;;61.27;30.33;;;;;;;;;;5036032;28;20758;-67
2022/01/09 09:33:33;;;;;;;101.70;44.50;;;;;;;;;;5036050;28;20256;-66
2022/01/09 09:36:02;;;;;;;142.40;55.47;;;;;;;;;;5035919;28;20707;-65
2022/01/09 09:38:30;;;;;;;99.53;44.20;;;;;;;;;;5040629;28;20255;-65
2022/01/09 09:40:58;;;;;;;105.33;45.53;;;;;;;;;;5041747;28;20229;-65
2022/01/09 09:43:25;;;;;;;244.83;84.43;;;;;;;;;;5035692;28;20314;-64
2022/01/09 09:45:53;;;;;;;200.57;66.70;;;;;;;;;;5035038;28;20264;-64
2022/01/09 09:48:20;;;;;;;161.13;62.87;;;;;;;;;;5056037;28;20625;-64
2022/01/09 09:50:47;;;;;;;114.83;48.80;;;;;;;;;;5044973;28;20244;-64
2022/01/09 09:53:15;;;;;;;155.47;62.53;;;;;;;;;;5044197;28;20236;-63
2022/01/09 09:55:44;;;;;;;67.77;33.43;;;;;;;;;;5044032;28;20232;-65
2022/01/09 09:58:12;;;;;;;87.83;43.00;;;;;;;;;;5046102;28;20248;-65
2022/01/09 10:00:39;;;;;;;92.67;43.43;;;;;;;;;;5044843;28;20245;-65
2022/01/09 10:03:07;;;;;;;67.13;32.57;;;;;;;;;;5045999;28;20262;-67
2022/01/09 10:05:37;;;;;;;102.27;44.93;;;;;;;;;;5042091;28;20278;-66
2022/01/09 10:08:09;;;;;;;71.30;33.47;;;;;;;;;;5042566;28;20220;-66
2022/01/09 10:10:37;;;;;;;41.47;21.37;;;;;;;;;;5033852;28;20252;-73
2022/01/09 10:13:13;;;;;;;76.40;35.10;;;;;;;;;;5034423;28;20256;-74
2022/01/09 10:15:56;;;;;;;31.33;17.67;;;;;;;;;;5034616;28;20722;-70
2022/01/09 10:18:38;;;;;;;122.70;47.80;;;;;;;;;;5033650;28;20252;-69
2022/01/09 10:21:08;;;;;;;471.87;166.80;;;;;;;;;;5048667;28;20238;-68
2022/01/09 10:23:57;;;;;;;38.57;20.53;;;;;;;;;;5046032;28;20242;-69
2022/01/09 10:26:26;;;;;;;32.03;16.67;;;;;;;;;;5043681;28;20772;-70
2022/01/09 10:28:57;;;;;;;28.97;16.83;;;;;;;;;;5041468;28;20236;-70
2022/01/09 10:31:26;;;;;;;24.93;14.60;;;;;;;;;;5043891;28;20293;-69
2022/01/09 10:34:03;;;;;;;27.43;13.77;;;;;;;;;;5043039;28;20787;-70
2022/01/09 10:36:32;;;;;;;25.57;13.93;;;;;;;;;;5038844;28;20232;-69
2022/01/09 10:39:09;;;;;;;30.47;16.60;;;;;;;;;;5033731;28;20236;-72
2022/01/09 10:42:02;;;;;;;31.37;17.97;;;;;;;;;;5033219;28;20236;-76
2022/01/09 10:44:39;;;;;;;36.93;18.97;;;;;;;;;;5018257;28;20721;-72
2022/01/09 10:47:12;;;;;;;38.97;21.93;;;;;;;;;;5033764;28;20232;-75
2022/01/09 10:49:51;;;;;;;45.30;22.93;;;;;;;;;;5032176;28;20319;-70
2022/01/09 10:52:25;;;;;;;42.53;22.20;;;;;;;;;;5034104;28;20240;-71
2022/01/09 10:54:54;;;;;;;48.00;23.97;;;;;;;;;;5036381;28;20235;-72
2022/01/09 10:57:42;;;;;;;41.93;20.97;;;;;;;;;;5039517;28;20617;-71
2022/01/09 11:00:12;;;;;;;43.47;20.57;;;;;;;;;;5034318;28;20229;-71
2022/01/09 11:02:39;;;;;;;38.03;19.03;;;;;;;;;;5034085;28;20315;-73
2022/01/09 11:05:08;;;;;;;32.90;19.23;;;;;;;;;;5033629;28;20278;-73
2022/01/09 11:07:36;;;;;;;22.60;13.13;;;;;;;;;;5033845;28;20236;-71
2022/01/09 11:10:06;;;;;;;25.53;15.27;;;;;;;;;;5042974;28;20706;-72
2022/01/09 11:12:45;;;;;;;23.13;13.40;;;;;;;;;;5053899;28;20309;-71
2022/01/09 11:15:16;;;;;;;22.07;13.10;;;;;;;;;;5053949;28;20235;-70
2022/01/09 11:17:44;;;;;;;27.63;15.23;;;;;;;;;;5036211;28;20274;-73
2022/01/09 11:20:11;;;;;;;27.80;14.70;;;;;;;;;;5051826;28;20244;-70
2022/01/09 11:22:39;;;;;;;23.53;12.63;;;;;;;;;;5053179;28;20228;-69
2022/01/09 11:25:36;;;;;;;21.07;12.03;;;;;;;;;;5047688;28;20241;-69
2022/01/09 11:28:18;;;;;;;19.70;10.37;;;;;;;;;;5042915;28;20711;-69
2022/01/09 11:31:01;;;;;;;15.43;9.20;;;;;;;;;;5041549;28;20594;-69
2022/01/09 11:34:03;;;;;;;14.10;8.47;;;;;;;;;;5042883;28;20648;-72
2022/01/09 11:36:56;;;;;;;11.90;7.37;;;;;;;;;;5018290;28;20232;-69
2022/01/09 11:39:35;;;;;;;13.07;7.17;;;;;;;;;;5044465;28;20631;-71
2022/01/09 11:42:13;;;;;;;9.93;6.47;;;;;;;;;;5033241;28;20289;-74
2022/01/09 11:44:52;;;;;;;9.97;6.57;;;;;;;;;;5041636;28;20235;-70
2022/01/09 11:47:20;;;;;;;11.47;7.57;;;;;;;;;;5042513;28;20233;-69
2022/01/09 11:49:50;;;;;;;12.70;8.00;;;;;;;;;;5039765;28;20232;-68
2022/01/09 11:52:17;;;;;;;14.73;8.77;;;;;;;;;;5043063;28;20331;-68
2022/01/09 11:55:04;;;;;;;17.00;9.60;;;;;;;;;;5043799;28;20306;-68
2022/01/09 11:57:47;;;;;;;15.43;10.03;;;;;;;;;;5033107;28;20243;-68
2022/01/09 12:00:29;;;;;;;18.83;10.10;;;;;;;;;;5033442;28;20229;-69
2022/01/09 12:02:57;;;;;;;13.80;8.80;;;;;;;;;;5032738;28;20201;-68
2022/01/09 12:05:24;;;;;;;14.00;9.27;;;;;;;;;;5033890;28;20254;-69
2022/01/09 12:07:51;;;;;;;16.93;9.57;;;;;;;;;;5032575;28;20295;-68
2022/01/09 12:10:30;;;;;;;13.70;8.43;;;;;;;;;;5033691;28;20621;-69
2022/01/09 12:12:58;;;;;;;14.40;9.23;;;;;;;;;;5033641;28;20239;-69
2022/01/09 12:15:52;;;;;;;14.03;8.37;;;;;;;;;;5049132;28;20208;-69
2022/01/09 12:18:40;;;;;;;15.30;9.37;;;;;;;;;;5031946;28;20233;-68
2022/01/09 12:21:09;;;;;;;15.40;8.43;;;;;;;;;;5033450;28;20632;-68
2022/01/09 12:23:36;;;;;;;18.70;9.73;;;;;;;;;;5033640;28;20215;-68
2022/01/09 12:26:03;;;;;;;16.47;8.77;;;;;;;;;;5033207;28;20571;-68
2022/01/09 12:28:37;;;;;;;17.70;10.17;;;;;;;;;;5033712;28;20239;-70
2022/01/09 12:31:06;;;;;;;19.97;10.17;;;;;;;;;;5033558;28;20197;-70
2022/01/09 12:33:34;;;;;;;21.40;11.27;;;;;;;;;;5033427;28;20217;-68
2022/01/09 12:36:08;;;;;;;21.33;10.90;;;;;;;;;;5036681;28;20209;-68
2022/01/09 12:38:47;;;;;;;21.17;11.37;;;;;;;;;;5037366;28;20239;-69
2022/01/09 12:41:27;;;;;;;22.43;12.00;;;;;;;;;;5039885;28;20651;-71
2022/01/09 12:44:08;;;;;;;23.37;12.63;;;;;;;;;;5041555;28;20232;-70
2022/01/09 12:46:41;;;;;;;25.37;14.30;;;;;;;;;;5042624;28;20243;-68
2022/01/09 12:49:12;;;;;;;15.40;10.67;;;;;;;;;;5052599;28;20315;-73
2022/01/09 12:51:46;;;;;;;16.50;9.93;;;;;;;;;;5047287;28;20235;-71
2022/01/09 12:54:14;;;;;;;12.30;8.90;;;;;;;;;;5048128;28;20232;-70
2022/01/09 12:56:42;;;;;;;17.63;9.83;;;;;;;;;;5050389;28;20253;-71
2022/01/09 12:59:16;;;;;;;48.83;16.50;;;;;;;;;;5043379;28;20294;-70
2022/01/09 13:01:58;;;;;;;21.13;11.87;;;;;;;;;;5043310;28;20231;-76
2022/01/09 13:04:25;;;;;;;19.43;11.23;;;;;;;;;;5043793;28;20227;-73
2022/01/09 13:07:13;;;;;;;21.43;11.00;;;;;;;;;;5044189;28;20289;-73
2022/01/09 13:09:41;;;;;;;20.73;12.10;;;;;;;;;;5057002;28;20281;-76
2022/01/09 13:12:08;;;;;;;128.43;40.03;;;;;;;;;;5041735;28;20572;-76
2022/01/09 13:14:43;;;;;;;25.07;13.30;;;;;;;;;;5038002;28;20228;-73
2022/01/09 13:17:12;;;;;;;20.20;11.93;;;;;;;;;;5035773;28;20706;-75
2022/01/09 13:19:59;;;;;;;20.27;11.80;;;;;;;;;;5035803;28;20236;-70
2022/01/09 13:22:27;;;;;;;18.40;10.43;;;;;;;;;;5035697;28;20637;-75
2022/01/09 13:25:21;;;;;;;19.60;11.63;;;;;;;;;;5035853;28;20233;-76
2022/01/09 13:27:48;;;;;;;18.40;11.23;;;;;;;;;;5041445;28;20248;-74
2022/01/09 13:30:15;;;;;;;24.57;12.33;;;;;;;;;;5041274;28;20260;-69
2022/01/09 13:32:42;;;;;;;21.93;12.03;;;;;;;;;;5035574;28;20229;-73
2022/01/09 13:35:09;;;;;;;25.73;13.40;;;;;;;;;;5035673;28;20228;-76
2022/01/09 13:37:37;;;;;;;59.17;23.83;;;;;;;;;;5035173;28;20236;-76
2022/01/09 13:40:04;;;;;;;20.87;12.10;;;;;;;;;;5035963;28;20287;-75
2022/01/09 13:42:32;;;;;;;16.50;10.87;;;;;;;;;;5035110;28;20579;-77
2022/01/09 13:45:11;;;;;;;18.40;11.10;;;;;;;;;;5033391;28;20312;-73
2022/01/09 13:47:42;;;;;;;22.47;12.13;;;;;;;;;;5040958;28;20703;-71
2022/01/09 13:50:19;;;;;;;15.53;8.97;;;;;;;;;;5040072;28;20260;-75
2022/01/09 13:52:47;;;;;;;17.80;9.63;;;;;;;;;;5033010;28;20236;-71
2022/01/09 13:55:22;;;;;;;21.47;11.07;;;;;;;;;;5035661;28;20303;-72
2022/01/09 13:57:55;;;;;;;12.57;7.80;;;;;;;;;;5035945;28;20259;-72
2022/01/09 14:00:25;;;;;;;15.53;8.67;;;;;;;;;;5035149;28;20229;-69
2022/01/09 14:02:54;;;;;;;18.17;10.50;;;;;;;;;;5050729;28;20232;-72
2022/01/09 14:05:37;;;;;;;15.73;9.43;;;;;;;;;;5034830;28;20250;-72
2022/01/09 14:08:06;;;;;;;18.23;10.53;;;;;;;;;;5034770;28;20232;-76
2022/01/09 14:10:36;;;;;;;16.67;10.23;;;;;;;;;;5034719;28;20348;-76
2022/01/09 14:13:14;;;;;;;20.73;11.57;;;;;;;;;;5034820;28;20236;-74
2022/01/09 14:15:43;;;;;;;17.40;11.60;;;;;;;;;;5049567;28;20243;-76
2022/01/09 14:18:24;;;;;;;16.27;10.53;;;;;;;;;;5032734;28;20323;-74
2022/01/09 14:21:10;;;;;;;19.63;11.60;;;;;;;;;;5034118;28;21368;-71
2022/01/09 14:23:44;;;;;;;16.50;9.33;;;;;;;;;;5034631;28;20586;-74
2022/01/09 14:26:19;;;;;;;17.50;11.30;;;;;;;;;;5033424;28;20315;-74
2022/01/09 14:28:49;;;;;;;19.13;11.53;;;;;;;;;;5036480;28;20236;-76
2022/01/09 14:31:19;;;;;;;15.37;9.50;;;;;;;;;;5033798;28;20245;-77
2022/01/09 14:33:49;;;;;;;18.90;11.30;;;;;;;;;;5034817;28;20239;-76
2022/01/09 14:36:21;;;;;;;19.03;10.63;;;;;;;;;;5017305;28;20260;-76